Terminal Aerodrome Forecast
Issued by NWS

Home | Current Version | Previous Version | Text Only | Print | Product List | Glossary Off
Versions: 1 2 3 4 5 6 7 8 9 10 11 12 13 14 15 16

000
FTUS43 KTOP 212339
TAFFOE
TAF
KFOE 212339Z 2200/2224 19012KT P6SM SKC
     FM220600 19013KT P6SM SKC WS015/22040KT
     FM221200 22012KT P6SM SKC
     FM221800 22006KT P6SM FEW080=

USA.gov is the U.S. government's official web portal to all federal, state and local government web resources and services.